sensor_id;sensor_type;location;lat;lon;timestamp;P1;durP1;ratioP1;P2;durP2;ratioP2
9280;SDS011;4679;47.966;7.958;2022-09-16T05:35:04;5.23;;;4.73;;
9280;SDS011;4679;47.966;7.958;2022-09-16T05:37:06;5.67;;;4.80;;
9280;SDS011;4679;47.966;7.958;2022-09-16T05:39:08;6.27;;;5.43;;
9280;SDS011;4679;47.966;7.958;2022-09-16T05:41:11;5.43;;;4.20;;
9280;SDS011;4679;47.966;7.958;2022-09-16T05:43:13;4.70;;;4.40;;
9280;SDS011;4679;47.966;7.958;2022-09-16T05:45:15;6.43;;;4.60;;
9280;SDS011;4679;47.966;7.958;2022-09-16T05:47:29;7.13;;;5.67;;
9280;SDS011;4679;47.966;7.958;2022-09-16T05:49:30;7.30;;;6.63;;
9280;SDS011;4679;47.966;7.958;2022-09-16T05:51:33;6.13;;;5.67;;
9280;SDS011;4679;47.966;7.958;2022-09-16T05:53:37;6.47;;;4.83;;
9280;SDS011;4679;47.966;7.958;2022-09-16T05:55:39;6.67;;;6.03;;
9280;SDS011;4679;47.966;7.958;2022-09-16T05:57:40;6.37;;;5.30;;
9280;SDS011;4679;47.966;7.958;2022-09-16T05:59:42;6.63;;;5.17;;
9280;SDS011;4679;47.966;7.958;2022-09-16T06:01:44;7.77;;;4.90;;
9280;SDS011;4679;47.966;7.958;2022-09-16T06:03:46;5.07;;;4.57;;
9280;SDS011;4679;47.966;7.958;2022-09-16T06:05:49;5.37;;;4.97;;
9280;SDS011;4679;47.966;7.958;2022-09-16T06:07:52;5.67;;;4.60;;
9280;SDS011;4679;47.966;7.958;2022-09-16T06:09:56;8.70;;;5.53;;
9280;SDS011;4679;47.966;7.958;2022-09-16T06:11:58;5.63;;;5.13;;
9280;SDS011;4679;47.966;7.958;2022-09-16T06:14:00;5.63;;;5.10;;
9280;SDS011;4679;47.966;7.958;2022-09-16T06:16:02;5.63;;;5.17;;
9280;SDS011;4679;47.966;7.958;2022-09-16T06:18:05;6.20;;;5.63;;
9280;SDS011;4679;47.966;7.958;2022-09-16T06:20:08;5.80;;;4.87;;
9280;SDS011;4679;47.966;7.958;2022-09-16T06:22:13;5.37;;;4.87;;
9280;SDS011;4679;47.966;7.958;2022-09-16T06:24:16;7.20;;;4.67;;
9280;SDS011;4679;47.966;7.958;2022-09-16T06:26:20;5.40;;;4.90;;
9280;SDS011;4679;47.966;7.958;2022-09-16T06:28:24;5.93;;;5.43;;
9280;SDS011;4679;47.966;7.958;2022-09-16T06:30:25;5.73;;;5.07;;
9280;SDS011;4679;47.966;7.958;2022-09-16T06:32:29;5.43;;;4.97;;
9280;SDS011;4679;47.966;7.958;2022-09-16T06:34:31;6.33;;;5.00;;
9280;SDS011;4679;47.966;7.958;2022-09-16T06:36:33;5.03;;;4.57;;
9280;SDS011;4679;47.966;7.958;2022-09-16T06:38:36;5.63;;;5.07;;
9280;SDS011;4679;47.966;7.958;2022-09-16T06:40:39;6.17;;;5.67;;
9280;SDS011;4679;47.966;7.958;2022-09-16T06:42:41;5.03;;;4.67;;
9280;SDS011;4679;47.966;7.958;2022-09-16T06:44:43;5.57;;;5.07;;
9280;SDS011;4679;47.966;7.958;2022-09-16T06:46:44;5.20;;;4.70;;
9280;SDS011;4679;47.966;7.958;2022-09-16T06:48:46;6.23;;;5.60;;
9280;SDS011;4679;47.966;7.958;2022-09-16T06:50:55;6.03;;;5.53;;
9280;SDS011;4679;47.966;7.958;2022-09-16T06:52:58;6.13;;;5.47;;
9280;SDS011;4679;47.966;7.958;2022-09-16T06:54:59;5.70;;;5.20;;
9280;SDS011;4679;47.966;7.958;2022-09-16T06:57:03;8.03;;;4.93;;
9280;SDS011;4679;47.966;7.958;2022-09-16T06:59:05;8.03;;;5.53;;
9280;SDS011;4679;47.966;7.958;2022-09-16T07:01:08;4.87;;;4.43;;
9280;SDS011;4679;47.966;7.958;2022-09-16T07:03:11;5.00;;;4.70;;
9280;SDS011;4679;47.966;7.958;2022-09-16T07:05:13;5.67;;;4.97;;
9280;SDS011;4679;47.966;7.958;2022-09-16T07:07:15;8.03;;;4.77;;
9280;SDS011;4679;47.966;7.958;2022-09-16T07:09:16;6.17;;;5.00;;
9280;SDS011;4679;47.966;7.958;2022-09-16T07:11:19;4.90;;;4.60;;
9280;SDS011;4679;47.966;7.958;2022-09-16T07:13:23;5.40;;;4.90;;
9280;SDS011;4679;47.966;7.958;2022-09-16T07:15:25;5.23;;;4.73;;
9280;SDS011;4679;47.966;7.958;2022-09-16T07:17:26;5.97;;;5.43;;
9280;SDS011;4679;47.966;7.958;2022-09-16T07:19:29;5.20;;;4.77;;
9280;SDS011;4679;47.966;7.958;2022-09-16T07:21:30;7.33;;;5.03;;
9280;SDS011;4679;47.966;7.958;2022-09-16T07:23:33;5.80;;;5.30;;
9280;SDS011;4679;47.966;7.958;2022-09-16T07:25:35;5.53;;;5.13;;
9280;SDS011;4679;47.966;7.958;2022-09-16T07:27:37;7.60;;;5.40;;
9280;SDS011;4679;47.966;7.958;2022-09-16T07:29:40;6.20;;;5.80;;
9280;SDS011;4679;47.966;7.958;2022-09-16T07:31:42;5.57;;;5.20;;
9280;SDS011;4679;47.966;7.958;2022-09-16T07:33:44;5.47;;;5.03;;
9280;SDS011;4679;47.966;7.958;2022-09-16T07:35:47;5.27;;;4.97;;
9280;SDS011;4679;47.966;7.958;2022-09-16T07:37:49;5.23;;;4.83;;
9280;SDS011;4679;47.966;7.958;2022-09-16T07:39:51;6.43;;;5.93;;
9280;SDS011;4679;47.966;7.958;2022-09-16T07:41:53;18.50;;;8.07;;
9280;SDS011;4679;47.966;7.958;2022-09-16T07:43:55;15.67;;;8.07;;
9280;SDS011;4679;47.966;7.958;2022-09-16T07:46:00;10.87;;;7.30;;
9280;SDS011;4679;47.966;7.958;2022-09-16T07:48:02;7.27;;;6.57;;
9280;SDS011;4679;47.966;7.958;2022-09-16T07:50:04;3.87;;;3.40;;
9280;SDS011;4679;47.966;7.958;2022-09-16T07:52:06;3.27;;;2.97;;
9280;SDS011;4679;47.966;7.958;2022-09-16T07:54:10;2.77;;;2.57;;
9280;SDS011;4679;47.966;7.958;2022-09-16T07:56:13;4.13;;;2.43;;
9280;SDS011;4679;47.966;7.958;2022-09-16T07:58:16;3.97;;;2.47;;
9280;SDS011;4679;47.966;7.958;2022-09-16T08:00:18;6.10;;;2.60;;
9280;SDS011;4679;47.966;7.958;2022-09-16T08:02:22;4.87;;;4.47;;
9280;SDS011;4679;47.966;7.958;2022-09-16T08:04:23;5.43;;;5.00;;
9280;SDS011;4679;47.966;7.958;2022-09-16T08:06:26;6.30;;;5.50;;
9280;SDS011;4679;47.966;7.958;2022-09-16T08:08:29;6.70;;;6.07;;
9280;SDS011;4679;47.966;7.958;2022-09-16T08:10:31;5.00;;;4.63;;
9280;SDS011;4679;47.966;7.958;2022-09-16T08:12:33;8.33;;;5.30;;
9280;SDS011;4679;47.966;7.958;2022-09-16T08:14:34;5.67;;;5.13;;
9280;SDS011;4679;47.966;7.958;2022-09-16T08:16:37;3.77;;;3.53;;
9280;SDS011;4679;47.966;7.958;2022-09-16T08:18:40;4.37;;;4.00;;
9280;SDS011;4679;47.966;7.958;2022-09-16T08:20:42;3.70;;;3.40;;
9280;SDS011;4679;47.966;7.958;2022-09-16T08:22:43;2.50;;;2.40;;
9280;SDS011;4679;47.966;7.958;2022-09-16T08:24:45;2.10;;;2.00;;
9280;SDS011;4679;47.966;7.958;2022-09-16T08:26:46;2.20;;;2.00;;
9280;SDS011;4679;47.966;7.958;2022-09-16T08:28:48;2.43;;;2.33;;
9280;SDS011;4679;47.966;7.958;2022-09-16T08:30:50;1.73;;;1.63;;
9280;SDS011;4679;47.966;7.958;2022-09-16T08:32:54;2.63;;;1.80;;
9280;SDS011;4679;47.966;7.958;2022-09-16T08:34:57;2.10;;;2.00;;
9280;SDS011;4679;47.966;7.958;2022-09-16T08:36:59;1.60;;;1.50;;
9280;SDS011;4679;47.966;7.958;2022-09-16T08:39:01;2.30;;;1.30;;
9280;SDS011;4679;47.966;7.958;2022-09-16T08:41:04;1.30;;;1.20;;
9280;SDS011;4679;47.966;7.958;2022-09-16T08:43:16;1.20;;;1.10;;
9280;SDS011;4679;47.966;7.958;2022-09-16T08:45:24;0.80;;;0.80;;
9280;SDS011;4679;47.966;7.958;2022-09-16T08:47:34;0.90;;;0.90;;
9280;SDS011;4679;47.966;7.958;2022-09-16T08:49:43;0.93;;;0.93;;
9280;SDS011;4679;47.966;7.958;2022-09-16T08:51:47;1.57;;;1.07;;
9280;SDS011;4679;47.966;7.958;2022-09-16T08:53:51;2.30;;;1.20;;
9280;SDS011;4679;47.966;7.958;2022-09-16T08:55:57;0.90;;;0.90;;
9280;SDS011;4679;47.966;7.958;2022-09-16T08:58:03;1.00;;;1.00;;
9280;SDS011;4679;47.966;7.958;2022-09-16T09:00:10;1.27;;;1.07;;
9280;SDS011;4679;47.966;7.958;2022-09-16T09:02:21;1.10;;;1.00;;
9280;SDS011;4679;47.966;7.958;2022-09-16T09:04:31;1.23;;;1.20;;
9280;SDS011;4679;47.966;7.958;2022-09-16T09:06:40;1.13;;;1.13;;
9280;SDS011;4679;47.966;7.958;2022-09-16T09:09:01;2.67;;;1.40;;
9280;SDS011;4679;47.966;7.958;2022-09-16T09:11:14;1.43;;;1.33;;
9280;SDS011;4679;47.966;7.958;2022-09-16T09:13:34;1.60;;;1.50;;
9280;SDS011;4679;47.966;7.958;2022-09-16T09:15:46;2.10;;;1.23;;
9280;SDS011;4679;47.966;7.958;2022-09-16T09:17:56;1.60;;;1.50;;
9280;SDS011;4679;47.966;7.958;2022-09-16T09:20:11;2.17;;;1.70;;
9280;SDS011;4679;47.966;7.958;2022-09-16T09:22:26;1.47;;;1.37;;
9280;SDS011;4679;47.966;7.958;2022-09-16T09:24:46;1.40;;;1.30;;
9280;SDS011;4679;47.966;7.958;2022-09-16T09:26:57;1.50;;;1.40;;
9280;SDS011;4679;47.966;7.958;2022-09-16T09:29:09;1.20;;;1.20;;
9280;SDS011;4679;47.966;7.958;2022-09-16T09:31:28;1.63;;;1.10;;
9280;SDS011;4679;47.966;7.958;2022-09-16T09:33:37;0.80;;;0.80;;
9280;SDS011;4679;47.966;7.958;2022-09-16T09:35:55;2.47;;;1.00;;
9280;SDS011;4679;47.966;7.958;2022-09-16T09:38:33;1.33;;;1.07;;
9280;SDS011;4679;47.966;7.958;2022-09-16T09:40:44;2.67;;;1.23;;
9280;SDS011;4679;47.966;7.958;2022-09-16T09:42:52;1.67;;;1.00;;
9280;SDS011;4679;47.966;7.958;2022-09-16T09:45:01;1.50;;;1.40;;
9280;SDS011;4679;47.966;7.958;2022-09-16T09:47:09;1.67;;;1.40;;
9280;SDS011;4679;47.966;7.958;2022-09-16T09:49:17;1.97;;;1.20;;
9280;SDS011;4679;47.966;7.958;2022-09-16T09:51:28;1.30;;;1.20;;
9280;SDS011;4679;47.966;7.958;2022-09-16T09:53:35;1.67;;;1.23;;
9280;SDS011;4679;47.966;7.958;2022-09-16T09:55:41;2.20;;;1.00;;
9280;SDS011;4679;47.966;7.958;2022-09-16T09:57:46;1.63;;;1.30;;
9280;SDS011;4679;47.966;7.958;2022-09-16T10:00:00;1.40;;;1.30;;
9280;SDS011;4679;47.966;7.958;2022-09-16T10:02:10;1.40;;;1.30;;
9280;SDS011;4679;47.966;7.958;2022-09-16T10:04:15;2.27;;;1.10;;
9280;SDS011;4679;47.966;7.958;2022-09-16T10:06:17;2.53;;;1.57;;
9280;SDS011;4679;47.966;7.958;2022-09-16T10:08:24;1.40;;;1.30;;
9280;SDS011;4679;47.966;7.958;2022-09-16T10:10:32;2.07;;;1.40;;
9280;SDS011;4679;47.966;7.958;2022-09-16T10:12:35;2.00;;;1.40;;
9280;SDS011;4679;47.966;7.958;2022-09-16T10:14:36;1.23;;;1.13;;
9280;SDS011;4679;47.966;7.958;2022-09-16T10:16:50;1.33;;;1.23;;
9280;SDS011;4679;47.966;7.958;2022-09-16T10:18:54;1.53;;;1.30;;
9280;SDS011;4679;47.966;7.958;2022-09-16T10:21:01;2.53;;;1.70;;
9280;SDS011;4679;47.966;7.958;2022-09-16T10:23:08;2.60;;;1.30;;
9280;SDS011;4679;47.966;7.958;2022-09-16T10:25:20;2.83;;;1.50;;
9280;SDS011;4679;47.966;7.958;2022-09-16T10:27:27;2.80;;;1.20;;
9280;SDS011;4679;47.966;7.958;2022-09-16T10:29:33;1.63;;;1.40;;
9280;SDS011;4679;47.966;7.958;2022-09-16T10:31:35;2.63;;;1.30;;
9280;SDS011;4679;47.966;7.958;2022-09-16T10:33:40;2.30;;;1.23;;
9280;SDS011;4679;47.966;7.958;2022-09-16T10:35:50;1.47;;;1.20;;
9280;SDS011;4679;47.966;7.958;2022-09-16T10:37:56;1.23;;;1.03;;
9280;SDS011;4679;47.966;7.958;2022-09-16T10:40:00;1.47;;;1.30;;
9280;SDS011;4679;47.966;7.958;2022-09-16T10:42:13;1.33;;;1.10;;
9280;SDS011;4679;47.966;7.958;2022-09-16T10:44:20;1.30;;;1.20;;
9280;SDS011;4679;47.966;7.958;2022-09-16T10:46:24;1.40;;;1.30;;
9280;SDS011;4679;47.966;7.958;2022-09-16T10:48:28;1.40;;;1.27;;
9280;SDS011;4679;47.966;7.958;2022-09-16T10:50:32;1.53;;;1.40;;
9280;SDS011;4679;47.966;7.958;2022-09-16T10:52:39;2.50;;;1.17;;
9280;SDS011;4679;47.966;7.958;2022-09-16T10:54:42;1.53;;;1.30;;
9280;SDS011;4679;47.966;7.958;2022-09-16T10:56:46;2.73;;;1.40;;
9280;SDS011;4679;47.966;7.958;2022-09-16T10:58:48;1.70;;;1.60;;
9280;SDS011;4679;47.966;7.958;2022-09-16T11:00:54;1.90;;;1.60;;
9280;SDS011;4679;47.966;7.958;2022-09-16T11:03:28;1.80;;;1.63;;
9280;SDS011;4679;47.966;7.958;2022-09-16T11:05:43;2.30;;;1.50;;
9280;SDS011;4679;47.966;7.958;2022-09-16T11:07:54;1.50;;;1.40;;
9280;SDS011;4679;47.966;7.958;2022-09-16T11:10:10;2.17;;;1.80;;
9280;SDS011;4679;47.966;7.958;2022-09-16T11:12:25;2.03;;;1.73;;
9280;SDS011;4679;47.966;7.958;2022-09-16T11:14:37;1.80;;;1.70;;
9280;SDS011;4679;47.966;7.958;2022-09-16T11:16:53;1.97;;;1.87;;
9280;SDS011;4679;47.966;7.958;2022-09-16T11:19:06;1.87;;;1.77;;
9280;SDS011;4679;47.966;7.958;2022-09-16T11:21:19;1.90;;;1.80;;
9280;SDS011;4679;47.966;7.958;2022-09-16T11:23:48;2.37;;;1.90;;
9280;SDS011;4679;47.966;7.958;2022-09-16T11:26:03;3.53;;;1.93;;
9280;SDS011;4679;47.966;7.958;2022-09-16T11:28:16;1.80;;;1.50;;
9280;SDS011;4679;47.966;7.958;2022-09-16T11:30:39;1.70;;;1.60;;
9280;SDS011;4679;47.966;7.958;2022-09-16T11:35:22;1.67;;;1.57;;
9280;SDS011;4679;47.966;7.958;2022-09-16T11:37:33;2.43;;;1.83;;
9280;SDS011;4679;47.966;7.958;2022-09-16T11:39:56;3.60;;;1.90;;
9280;SDS011;4679;47.966;7.958;2022-09-16T11:42:09;1.80;;;1.70;;
9280;SDS011;4679;47.966;7.958;2022-09-16T11:44:20;1.90;;;1.80;;
9280;SDS011;4679;47.966;7.958;2022-09-16T11:46:31;4.87;;;2.53;;
9280;SDS011;4679;47.966;7.958;2022-09-16T11:48:43;2.70;;;2.00;;
9280;SDS011;4679;47.966;7.958;2022-09-16T11:50:56;2.03;;;1.93;;
9280;SDS011;4679;47.966;7.958;2022-09-16T11:53:08;7.03;;;2.17;;
9280;SDS011;4679;47.966;7.958;2022-09-16T11:55:30;2.77;;;2.23;;
9280;SDS011;4679;47.966;7.958;2022-09-16T11:57:44;3.30;;;2.43;;
9280;SDS011;4679;47.966;7.958;2022-09-16T11:59:52;1.77;;;1.67;;
9280;SDS011;4679;47.966;7.958;2022-09-16T12:01:59;3.63;;;2.23;;
9280;SDS011;4679;47.966;7.958;2022-09-16T12:04:15;3.53;;;2.50;;
9280;SDS011;4679;47.966;7.958;2022-09-16T12:06:21;5.67;;;4.43;;
9280;SDS011;4679;47.966;7.958;2022-09-16T12:08:27;3.87;;;3.57;;
9280;SDS011;4679;47.966;7.958;2022-09-16T12:10:32;4.87;;;4.43;;
9280;SDS011;4679;47.966;7.958;2022-09-16T12:12:39;6.47;;;4.70;;
9280;SDS011;4679;47.966;7.958;2022-09-16T12:14:47;4.23;;;3.77;;
9280;SDS011;4679;47.966;7.958;2022-09-16T12:16:54;3.77;;;3.30;;
9280;SDS011;4679;47.966;7.958;2022-09-16T12:19:00;2.93;;;2.73;;
9280;SDS011;4679;47.966;7.958;2022-09-16T12:21:09;2.57;;;2.37;;
9280;SDS011;4679;47.966;7.958;2022-09-16T12:23:17;3.97;;;2.40;;
9280;SDS011;4679;47.966;7.958;2022-09-16T12:25:24;2.23;;;1.87;;
9280;SDS011;4679;47.966;7.958;2022-09-16T12:27:32;3.13;;;2.10;;
9280;SDS011;4679;47.966;7.958;2022-09-16T12:29:42;5.97;;;2.13;;
9280;SDS011;4679;47.966;7.958;2022-09-16T12:31:51;1.93;;;1.80;;
9280;SDS011;4679;47.966;7.958;2022-09-16T12:33:57;4.90;;;2.80;;
9280;SDS011;4679;47.966;7.958;2022-09-16T12:36:04;3.63;;;2.63;;
9280;SDS011;4679;47.966;7.958;2022-09-16T12:38:11;4.00;;;3.13;;
9280;SDS011;4679;47.966;7.958;2022-09-16T12:40:19;4.20;;;2.87;;
9280;SDS011;4679;47.966;7.958;2022-09-16T12:45:00;2.37;;;1.90;;
9280;SDS011;4679;47.966;7.958;2022-09-16T12:49:52;4.20;;;2.60;;
9280;SDS011;4679;47.966;7.958;2022-09-16T12:52:24;2.40;;;2.20;;
9280;SDS011;4679;47.966;7.958;2022-09-16T12:54:41;2.20;;;2.10;;
9280;SDS011;4679;47.966;7.958;2022-09-16T12:57:03;4.63;;;4.10;;
9280;SDS011;4679;47.966;7.958;2022-09-16T12:59:24;4.80;;;3.93;;
9280;SDS011;4679;47.966;7.958;2022-09-16T13:01:45;6.23;;;4.10;;
9280;SDS011;4679;47.966;7.958;2022-09-16T13:03:52;3.87;;;3.60;;
9280;SDS011;4679;47.966;7.958;2022-09-16T13:05:56;3.33;;;3.03;;
9280;SDS011;4679;47.966;7.958;2022-09-16T13:08:20;4.10;;;2.70;;
9280;SDS011;4679;47.966;7.958;2022-09-16T13:10:27;3.10;;;2.80;;
9280;SDS011;4679;47.966;7.958;2022-09-16T13:12:32;2.70;;;2.57;;
9280;SDS011;4679;47.966;7.958;2022-09-16T13:14:35;4.03;;;2.57;;
9280;SDS011;4679;47.966;7.958;2022-09-16T13:16:50;2.57;;;2.30;;
9280;SDS011;4679;47.966;7.958;2022-09-16T13:19:03;3.53;;;3.23;;
9280;SDS011;4679;47.966;7.958;2022-09-16T13:21:30;2.90;;;2.63;;
9280;SDS011;4679;47.966;7.958;2022-09-16T13:23:40;3.43;;;3.10;;
9280;SDS011;4679;47.966;7.958;2022-09-16T13:25:48;3.10;;;2.80;;
9280;SDS011;4679;47.966;7.958;2022-09-16T13:27:57;3.30;;;3.10;;
9280;SDS011;4679;47.966;7.958;2022-09-16T13:30:12;3.00;;;2.70;;
9280;SDS011;4679;47.966;7.958;2022-09-16T13:32:27;4.83;;;3.30;;
9280;SDS011;4679;47.966;7.958;2022-09-16T13:34:38;4.53;;;3.37;;
9280;SDS011;4679;47.966;7.958;2022-09-16T13:36:40;3.53;;;3.23;;
9280;SDS011;4679;47.966;7.958;2022-09-16T13:38:42;3.67;;;3.33;;
9280;SDS011;4679;47.966;7.958;2022-09-16T13:40:52;5.40;;;3.70;;
9280;SDS011;4679;47.966;7.958;2022-09-16T13:43:02;4.10;;;3.67;;
9280;SDS011;4679;47.966;7.958;2022-09-16T13:45:32;18.17;;;11.13;;
9280;SDS011;4679;47.966;7.958;2022-09-16T13:47:36;35.50;;;18.90;;
9280;SDS011;4679;47.966;7.958;2022-09-16T13:49:40;6.30;;;5.70;;
9280;SDS011;4679;47.966;7.958;2022-09-16T13:51:44;5.33;;;4.33;;
9280;SDS011;4679;47.966;7.958;2022-09-16T13:53:48;4.77;;;3.63;;
9280;SDS011;4679;47.966;7.958;2022-09-16T13:55:52;4.97;;;4.53;;
9280;SDS011;4679;47.966;7.958;2022-09-16T13:58:04;4.30;;;3.90;;
9280;SDS011;4679;47.966;7.958;2022-09-16T14:00:17;4.57;;;4.17;;
9280;SDS011;4679;47.966;7.958;2022-09-16T14:02:23;4.60;;;4.23;;
9280;SDS011;4679;47.966;7.958;2022-09-16T14:04:36;4.50;;;4.20;;
9280;SDS011;4679;47.966;7.958;2022-09-16T14:06:55;5.57;;;4.87;;
9280;SDS011;4679;47.966;7.958;2022-09-16T14:09:09;4.03;;;3.63;;
9280;SDS011;4679;47.966;7.958;2022-09-16T14:11:24;4.53;;;4.23;;
9280;SDS011;4679;47.966;7.958;2022-09-16T14:13:34;4.80;;;3.80;;
9280;SDS011;4679;47.966;7.958;2022-09-16T14:15:39;4.27;;;3.87;;
9280;SDS011;4679;47.966;7.958;2022-09-16T14:17:45;4.47;;;3.63;;
9280;SDS011;4679;47.966;7.958;2022-09-16T14:19:50;5.13;;;4.30;;
9280;SDS011;4679;47.966;7.958;2022-09-16T14:21:59;4.43;;;4.03;;
9280;SDS011;4679;47.966;7.958;2022-09-16T14:24:13;4.67;;;4.27;;
9280;SDS011;4679;47.966;7.958;2022-09-16T14:26:17;4.77;;;4.27;;
9280;SDS011;4679;47.966;7.958;2022-09-16T14:28:23;4.17;;;3.70;;
9280;SDS011;4679;47.966;7.958;2022-09-16T14:30:25;4.23;;;3.50;;
9280;SDS011;4679;47.966;7.958;2022-09-16T14:32:28;5.57;;;3.57;;
9280;SDS011;4679;47.966;7.958;2022-09-16T14:34:32;4.07;;;3.80;;
9280;SDS011;4679;47.966;7.958;2022-09-16T14:36:37;3.67;;;3.33;;
9280;SDS011;4679;47.966;7.958;2022-09-16T14:38:43;4.67;;;3.30;;
9280;SDS011;4679;47.966;7.958;2022-09-16T14:40:54;4.67;;;3.23;;
9280;SDS011;4679;47.966;7.958;2022-09-16T14:42:57;3.83;;;3.37;;
9280;SDS011;4679;47.966;7.958;2022-09-16T14:45:06;4.37;;;3.07;;
9280;SDS011;4679;47.966;7.958;2022-09-16T14:47:16;5.93;;;3.37;;
9280;SDS011;4679;47.966;7.958;2022-09-16T14:49:24;3.20;;;2.53;;
9280;SDS011;4679;47.966;7.958;2022-09-16T14:51:26;7.30;;;3.27;;
9280;SDS011;4679;47.966;7.958;2022-09-16T14:53:29;3.60;;;3.17;;
9280;SDS011;4679;47.966;7.958;2022-09-16T14:55:32;3.80;;;2.90;;
9280;SDS011;4679;47.966;7.958;2022-09-16T14:57:39;3.27;;;3.00;;
9280;SDS011;4679;47.966;7.958;2022-09-16T14:59:41;4.20;;;2.93;;
9280;SDS011;4679;47.966;7.958;2022-09-16T15:01:44;5.90;;;2.93;;
9280;SDS011;4679;47.966;7.958;2022-09-16T15:03:47;3.90;;;3.20;;
9280;SDS011;4679;47.966;7.958;2022-09-16T15:05:51;4.47;;;2.50;;
9280;SDS011;4679;47.966;7.958;2022-09-16T15:07:58;2.60;;;2.40;;
9280;SDS011;4679;47.966;7.958;2022-09-16T15:10:13;3.53;;;3.20;;
9280;SDS011;4679;47.966;7.958;2022-09-16T15:12:23;5.53;;;2.90;;
9280;SDS011;4679;47.966;7.958;2022-09-16T15:14:27;3.57;;;2.67;;
9280;SDS011;4679;47.966;7.958;2022-09-16T15:16:29;2.60;;;2.40;;
9280;SDS011;4679;47.966;7.958;2022-09-16T15:18:33;2.93;;;2.73;;
9280;SDS011;4679;47.966;7.958;2022-09-16T15:20:37;3.57;;;2.30;;
9280;SDS011;4679;47.966;7.958;2022-09-16T15:22:41;3.10;;;2.50;;
9280;SDS011;4679;47.966;7.958;2022-09-16T15:24:43;3.40;;;3.20;;
9280;SDS011;4679;47.966;7.958;2022-09-16T15:26:47;4.43;;;2.67;;
9280;SDS011;4679;47.966;7.958;2022-09-16T15:28:53;6.17;;;2.97;;
9280;SDS011;4679;47.966;7.958;2022-09-16T15:30:56;7.67;;;3.00;;
9280;SDS011;4679;47.966;7.958;2022-09-16T15:32:58;4.97;;;3.60;;
9280;SDS011;4679;47.966;7.958;2022-09-16T15:35:10;3.70;;;3.50;;
9280;SDS011;4679;47.966;7.958;2022-09-16T15:37:29;4.30;;;3.50;;
9280;SDS011;4679;47.966;7.958;2022-09-16T15:39:33;3.60;;;3.40;;
9280;SDS011;4679;47.966;7.958;2022-09-16T15:41:35;3.70;;;3.40;;
9280;SDS011;4679;47.966;7.958;2022-09-16T15:43:37;3.87;;;3.33;;
9280;SDS011;4679;47.966;7.958;2022-09-16T15:45:41;4.60;;;3.17;;
9280;SDS011;4679;47.966;7.958;2022-09-16T15:47:54;3.97;;;3.20;;
9280;SDS011;4679;47.966;7.958;2022-09-16T15:49:59;7.93;;;3.30;;
9280;SDS011;4679;47.966;7.958;2022-09-16T15:52:07;4.07;;;3.73;;
9280;SDS011;4679;47.966;7.958;2022-09-16T15:54:14;4.20;;;3.23;;
9280;SDS011;4679;47.966;7.958;2022-09-16T15:56:20;4.03;;;3.43;;
9280;SDS011;4679;47.966;7.958;2022-09-16T15:58:32;3.43;;;3.13;;
9280;SDS011;4679;47.966;7.958;2022-09-16T16:03:14;4.10;;;2.80;;
9280;SDS011;4679;47.966;7.958;2022-09-16T16:05:20;3.93;;;3.63;;
9280;SDS011;4679;47.966;7.958;2022-09-16T16:09:43;4.60;;;2.73;;
9280;SDS011;4679;47.966;7.958;2022-09-16T16:11:45;3.50;;;3.10;;
9280;SDS011;4679;47.966;7.958;2022-09-16T16:13:46;3.53;;;2.50;;
9280;SDS011;4679;47.966;7.958;2022-09-16T16:15:50;4.40;;;2.70;;
9280;SDS011;4679;47.966;7.958;2022-09-16T16:17:52;4.73;;;3.23;;
9280;SDS011;4679;47.966;7.958;2022-09-16T16:19:57;4.27;;;3.43;;
9280;SDS011;4679;47.966;7.958;2022-09-16T16:21:59;4.00;;;3.57;;
9280;SDS011;4679;47.966;7.958;2022-09-16T16:24:02;4.60;;;3.77;;
9280;SDS011;4679;47.966;7.958;2022-09-16T16:26:04;3.47;;;3.17;;
9280;SDS011;4679;47.966;7.958;2022-09-16T16:28:07;4.60;;;2.87;;
9280;SDS011;4679;47.966;7.958;2022-09-16T16:30:09;4.30;;;3.90;;
9280;SDS011;4679;47.966;7.958;2022-09-16T16:32:12;3.93;;;3.57;;
9280;SDS011;4679;47.966;7.958;2022-09-16T16:34:15;3.50;;;3.03;;
9280;SDS011;4679;47.966;7.958;2022-09-16T16:36:17;6.13;;;3.43;;
9280;SDS011;4679;47.966;7.958;2022-09-16T16:38:19;4.27;;;3.00;;
9280;SDS011;4679;47.966;7.958;2022-09-16T16:40:22;5.03;;;2.50;;
9280;SDS011;4679;47.966;7.958;2022-09-16T16:42:24;4.73;;;3.70;;
9280;SDS011;4679;47.966;7.958;2022-09-16T16:44:27;6.33;;;3.20;;
9280;SDS011;4679;47.966;7.958;2022-09-16T16:46:29;3.17;;;2.97;;
9280;SDS011;4679;47.966;7.958;2022-09-16T16:48:31;3.73;;;2.93;;
9280;SDS011;4679;47.966;7.958;2022-09-16T16:50:33;3.77;;;2.90;;
9280;SDS011;4679;47.966;7.958;2022-09-16T16:52:35;4.07;;;2.50;;
9280;SDS011;4679;47.966;7.958;2022-09-16T16:54:37;3.23;;;2.50;;
9280;SDS011;4679;47.966;7.958;2022-09-16T16:56:40;2.73;;;2.30;;
9280;SDS011;4679;47.966;7.958;2022-09-16T16:58:42;3.83;;;2.57;;
9280;SDS011;4679;47.966;7.958;2022-09-16T17:00:43;3.60;;;3.10;;
9280;SDS011;4679;47.966;7.958;2022-09-16T17:02:47;3.13;;;2.93;;
9280;SDS011;4679;47.966;7.958;2022-09-16T17:04:49;2.47;;;2.37;;
9280;SDS011;4679;47.966;7.958;2022-09-16T17:06:50;4.57;;;2.60;;
9280;SDS011;4679;47.966;7.958;2022-09-16T17:08:52;2.50;;;2.30;;
9280;SDS011;4679;47.966;7.958;2022-09-16T17:11:03;3.60;;;1.83;;
9280;SDS011;4679;47.966;7.958;2022-09-16T17:13:07;2.13;;;1.80;;
9280;SDS011;4679;47.966;7.958;2022-09-16T17:15:09;3.00;;;1.83;;
9280;SDS011;4679;47.966;7.958;2022-09-16T17:17:11;2.73;;;1.97;;
9280;SDS011;4679;47.966;7.958;2022-09-16T17:19:13;4.20;;;1.97;;
9280;SDS011;4679;47.966;7.958;2022-09-16T17:21:17;3.20;;;1.93;;
9280;SDS011;4679;47.966;7.958;2022-09-16T17:23:21;1.93;;;1.83;;
9280;SDS011;4679;47.966;7.958;2022-09-16T17:25:23;2.40;;;2.20;;
9280;SDS011;4679;47.966;7.958;2022-09-16T17:27:25;2.83;;;2.17;;
9280;SDS011;4679;47.966;7.958;2022-09-16T17:29:28;2.87;;;2.00;;
9280;SDS011;4679;47.966;7.958;2022-09-16T17:31:30;2.63;;;1.70;;
9280;SDS011;4679;47.966;7.958;2022-09-16T17:33:33;2.60;;;2.37;;
9280;SDS011;4679;47.966;7.958;2022-09-16T17:35:35;5.10;;;2.23;;
9280;SDS011;4679;47.966;7.958;2022-09-16T17:37:37;2.97;;;2.27;;
9280;SDS011;4679;47.966;7.958;2022-09-16T17:39:38;3.50;;;2.50;;
9280;SDS011;4679;47.966;7.958;2022-09-16T17:41:40;5.40;;;2.20;;
9280;SDS011;4679;47.966;7.958;2022-09-16T17:43:43;4.23;;;2.70;;
9280;SDS011;4679;47.966;7.958;2022-09-16T17:45:46;3.47;;;2.27;;
9280;SDS011;4679;47.966;7.958;2022-09-16T17:47:51;2.97;;;2.27;;
9280;SDS011;4679;47.966;7.958;2022-09-16T17:49:53;2.50;;;2.30;;
9280;SDS011;4679;47.966;7.958;2022-09-16T17:51:56;2.73;;;2.50;;
9280;SDS011;4679;47.966;7.958;2022-09-16T17:53:58;2.23;;;1.90;;
9280;SDS011;4679;47.966;7.958;2022-09-16T17:56:00;2.63;;;2.50;;
9280;SDS011;4679;47.966;7.958;2022-09-16T17:58:03;2.70;;;2.50;;
9280;SDS011;4679;47.966;7.958;2022-09-16T18:00:06;2.50;;;2.33;;
9280;SDS011;4679;47.966;7.958;2022-09-16T18:02:10;3.43;;;3.10;;
9280;SDS011;4679;47.966;7.958;2022-09-16T18:04:13;1.80;;;1.70;;
9280;SDS011;4679;47.966;7.958;2022-09-16T18:06:15;2.80;;;1.60;;
9280;SDS011;4679;47.966;7.958;2022-09-16T18:08:19;6.67;;;1.67;;
9280;SDS011;4679;47.966;7.958;2022-09-16T18:10:20;2.80;;;1.50;;
9280;SDS011;4679;47.966;7.958;2022-09-16T18:12:23;1.50;;;1.40;;
9280;SDS011;4679;47.966;7.958;2022-09-16T18:14:25;2.40;;;1.50;;
9280;SDS011;4679;47.966;7.958;2022-09-16T18:16:27;1.67;;;1.40;;
9280;SDS011;4679;47.966;7.958;2022-09-16T18:18:31;2.97;;;1.27;;
9280;SDS011;4679;47.966;7.958;2022-09-16T18:20:35;3.13;;;1.50;;
9280;SDS011;4679;47.966;7.958;2022-09-16T18:22:37;4.13;;;1.60;;
9280;SDS011;4679;47.966;7.958;2022-09-16T18:24:39;3.03;;;1.40;;
9280;SDS011;4679;47.966;7.958;2022-09-16T18:26:40;2.70;;;1.47;;
9280;SDS011;4679;47.966;7.958;2022-09-16T18:28:43;2.93;;;1.67;;
9280;SDS011;4679;47.966;7.958;2022-09-16T18:30:46;2.43;;;1.70;;
9280;SDS011;4679;47.966;7.958;2022-09-16T18:32:48;3.67;;;1.80;;
9280;SDS011;4679;47.966;7.958;2022-09-16T18:34:52;4.07;;;2.30;;
9280;SDS011;4679;47.966;7.958;2022-09-16T18:36:53;5.03;;;2.43;;
9280;SDS011;4679;47.966;7.958;2022-09-16T18:38:56;2.33;;;2.13;;
9280;SDS011;4679;47.966;7.958;2022-09-16T18:41:05;3.50;;;2.40;;
9280;SDS011;4679;47.966;7.958;2022-09-16T18:43:09;2.43;;;2.23;;
9280;SDS011;4679;47.966;7.958;2022-09-16T18:45:10;3.57;;;2.53;;
9280;SDS011;4679;47.966;7.958;2022-09-16T18:47:12;2.90;;;2.60;;
9280;SDS011;4679;47.966;7.958;2022-09-16T18:49:14;4.43;;;2.40;;
9280;SDS011;4679;47.966;7.958;2022-09-16T18:51:19;3.57;;;2.50;;